createdAt,value
2023-02-09T00:02:06.549Z,4.30
2023-02-09T00:04:37.600Z,4.10
2023-02-09T00:07:08.563Z,3.90
2023-02-09T00:09:39.506Z,4.00
2023-02-09T00:12:29.092Z,3.90
2023-02-09T00:15:00.025Z,3.40
2023-02-09T00:17:35.864Z,3.70
2023-02-09T00:20:08.455Z,4.00
2023-02-09T00:22:39.381Z,4.00
2023-02-09T00:25:10.256Z,4.00
2023-02-09T00:27:41.180Z,3.80
2023-02-09T00:30:12.868Z,3.50
2023-02-09T00:32:43.840Z,3.30
2023-02-09T00:35:14.770Z,3.70
2023-02-09T00:37:45.720Z,3.50
2023-02-09T00:40:16.847Z,3.30
2023-02-09T00:42:47.823Z,3.40
2023-02-09T00:45:18.887Z,3.40
2023-02-09T00:47:49.867Z,3.50
2023-02-09T00:50:20.787Z,3.60
2023-02-09T00:52:51.855Z,3.40
2023-02-09T00:55:24.039Z,3.10
2023-02-09T00:57:54.962Z,3.00
2023-02-09T01:00:26.494Z,3.20
2023-02-09T01:02:58.029Z,3.60
2023-02-09T01:05:29.054Z,3.50
2023-02-09T01:08:00.048Z,3.20
2023-02-09T01:10:30.947Z,2.90
2023-02-09T01:13:01.868Z,2.90
2023-02-09T01:15:32.928Z,3.00
2023-02-09T01:18:03.910Z,3.00
2023-02-09T01:20:35.468Z,3.20
2023-02-09T01:23:06.339Z,3.20
2023-02-09T01:25:37.233Z,3.30
2023-02-09T01:28:08.278Z,3.30
2023-02-09T01:30:39.253Z,3.40
2023-02-09T01:33:10.205Z,3.40
2023-02-09T01:35:41.068Z,3.20
2023-02-09T01:38:12.005Z,3.20
2023-02-09T01:40:50.061Z,3.40
2023-02-09T01:43:21.058Z,2.90
2023-02-09T01:45:55.250Z,3.30
2023-02-09T01:48:31.246Z,3.20
2023-02-09T01:51:02.281Z,3.20
2023-02-09T01:53:33.432Z,3.50
2023-02-09T01:56:13.898Z,3.60
2023-02-09T01:58:46.956Z,3.50
2023-02-09T02:01:18.725Z,3.20
2023-02-09T02:03:49.768Z,3.10
2023-02-09T02:06:21.061Z,3.10
2023-02-09T02:09:15.363Z,2.90
2023-02-09T02:11:48.083Z,2.90
2023-02-09T02:14:36.561Z,3.30
2023-02-09T02:17:49.997Z,3.40
2023-02-09T02:21:11.036Z,3.00
2023-02-09T02:23:59.493Z,3.50
2023-02-09T02:26:52.072Z,3.40
2023-02-09T02:30:05.467Z,3.40
2023-02-09T02:32:51.029Z,3.60
2023-02-09T02:35:36.739Z,3.70
2023-02-09T02:38:17.704Z,3.80
2023-02-09T02:41:01.529Z,4.10
2023-02-09T02:44:03.713Z,3.90
2023-02-09T02:46:45.408Z,3.80
2023-02-09T02:49:45.269Z,3.60
2023-02-09T02:52:16.306Z,3.50
2023-02-09T02:54:57.420Z,3.50
2023-02-09T02:57:32.829Z,3.80
2023-02-09T03:00:32.665Z,3.80
2023-02-09T03:03:16.684Z,3.40
2023-02-09T03:05:49.272Z,3.30
2023-02-09T03:08:20.232Z,3.20
2023-02-09T03:10:51.500Z,3.60
2023-02-09T03:13:37.990Z,3.50
2023-02-09T03:16:44.378Z,3.30
2023-02-09T03:19:41.386Z,3.10
2023-02-09T03:22:35.586Z,3.10
2023-02-09T03:25:20.390Z,2.90
2023-02-09T03:28:06.435Z,2.80
2023-02-09T03:30:42.159Z,2.90
2023-02-09T03:33:26.437Z,3.10
2023-02-09T03:36:01.627Z,3.00
2023-02-09T03:38:32.536Z,2.80
2023-02-09T03:41:03.547Z,3.10
2023-02-09T03:43:52.815Z,3.30
2023-02-09T03:46:23.704Z,3.20
2023-02-09T03:48:54.623Z,3.10
2023-02-09T03:51:25.530Z,2.80
2023-02-09T03:53:56.494Z,2.00
2023-02-09T03:56:27.397Z,1.60
2023-02-09T03:58:58.302Z,2.00
2023-02-09T04:01:29.200Z,1.70
2023-02-09T04:04:02.063Z,1.80
2023-02-09T04:06:34.156Z,2.00
2023-02-09T04:09:06.261Z,2.30
2023-02-09T04:11:37.363Z,2.00
2023-02-09T04:14:11.282Z,2.00
2023-02-09T04:16:42.175Z,2.20
2023-02-09T04:19:13.427Z,1.80
2023-02-09T04:21:44.365Z,1.80
2023-02-09T04:24:15.338Z,2.00
2023-02-09T04:26:46.228Z,1.90
2023-02-09T04:29:17.106Z,1.70
2023-02-09T04:31:48.131Z,1.90
2023-02-09T04:34:21.168Z,1.80
2023-02-09T04:36:52.125Z,1.70
2023-02-09T04:39:23.008Z,1.50
2023-02-09T04:41:53.999Z,1.90
2023-02-09T04:44:24.935Z,1.90
2023-02-09T04:46:55.822Z,1.60
2023-02-09T04:49:26.739Z,1.70
2023-02-09T04:51:57.651Z,1.80
2023-02-09T04:54:28.585Z,1.90
2023-02-09T04:57:18.150Z,1.90
2023-02-09T04:59:49.036Z,1.70
2023-02-09T05:02:20.066Z,1.40
2023-02-09T05:04:51.022Z,1.80
2023-02-09T05:07:23.328Z,2.10
2023-02-09T05:09:54.182Z,2.40
2023-02-09T05:12:25.096Z,2.60
2023-02-09T05:14:56.036Z,2.20
2023-02-09T05:17:27.179Z,2.10
2023-02-09T05:20:01.810Z,2.10
2023-02-09T05:22:32.916Z,2.00
2023-02-09T05:25:09.816Z,1.80
2023-02-09T05:27:40.802Z,2.10
2023-02-09T05:30:12.978Z,2.10
2023-02-09T05:32:44.064Z,1.90
2023-02-09T05:35:15.001Z,2.10
2023-02-09T05:37:45.921Z,2.20
2023-02-09T05:40:17.689Z,2.40
2023-02-09T05:42:48.565Z,2.40
2023-02-09T05:45:19.594Z,2.30
2023-02-09T05:47:50.554Z,2.10
2023-02-09T05:50:21.570Z,2.30
2023-02-09T05:52:52.562Z,2.10
2023-02-09T05:55:23.434Z,2.00
2023-02-09T05:57:54.348Z,1.90
2023-02-09T06:00:27.100Z,1.80
2023-02-09T06:02:58.810Z,2.00
2023-02-09T06:05:30.106Z,1.90
2023-02-09T06:08:01.030Z,2.00
2023-02-09T06:10:31.928Z,2.00
2023-02-09T06:13:02.979Z,1.80
2023-02-09T06:15:33.958Z,1.60
2023-02-09T06:18:05.032Z,1.80
2023-02-09T06:20:35.882Z,1.80
2023-02-09T06:23:06.821Z,1.60
2023-02-09T06:25:42.056Z,1.70
2023-02-09T06:28:13.013Z,1.60
2023-02-09T06:30:44.007Z,1.80
2023-02-09T06:33:14.991Z,1.80
2023-02-09T06:35:46.652Z,1.80
2023-02-09T06:38:17.596Z,1.90
2023-02-09T06:40:48.514Z,2.20
2023-02-09T06:43:19.410Z,2.40
2023-02-09T06:45:50.356Z,1.90
2023-02-09T06:48:21.289Z,1.70
2023-02-09T06:50:52.334Z,2.00
2023-02-09T06:53:23.387Z,1.80
2023-02-09T06:56:01.362Z,2.00
2023-02-09T06:58:32.316Z,2.10
2023-02-09T07:01:09.610Z,2.20
2023-02-09T07:03:40.480Z,2.30
2023-02-09T07:06:18.060Z,2.40
2023-02-09T07:08:50.294Z,2.10
2023-02-09T07:11:21.288Z,2.20
2023-02-09T07:13:52.172Z,2.00
2023-02-09T07:16:23.234Z,2.00
2023-02-09T07:18:54.216Z,1.90
2023-02-09T07:21:25.081Z,2.30
2023-02-09T07:23:55.990Z,2.60
2023-02-09T07:26:26.918Z,2.40
2023-02-09T07:28:57.839Z,2.60
2023-02-09T07:31:29.254Z,1.90
2023-02-09T07:34:00.339Z,2.30
2023-02-09T07:36:31.224Z,2.10
2023-02-09T07:39:02.368Z,2.60
2023-02-09T07:41:33.710Z,3.00
2023-02-09T07:44:04.611Z,3.20
2023-02-09T07:46:36.006Z,3.00
2023-02-09T07:49:07.109Z,3.50
2023-02-09T07:51:38.075Z,4.00
2023-02-09T07:54:16.208Z,4.00
2023-02-09T07:56:47.104Z,4.00
2023-02-09T07:59:18.063Z,4.40
2023-02-09T08:01:48.959Z,4.10
2023-02-09T08:04:20.003Z,4.00
2023-02-09T08:06:51.175Z,3.20
2023-02-09T08:09:22.059Z,2.80
2023-02-09T08:12:03.801Z,2.90
2023-02-09T08:14:44.439Z,2.50
2023-02-09T08:17:24.384Z,2.60
2023-02-09T08:20:10.634Z,2.80
2023-02-09T08:22:46.697Z,3.10
2023-02-09T08:25:21.597Z,2.70
2023-02-09T08:27:53.470Z,3.20
2023-02-09T08:30:24.462Z,2.60
2023-02-09T08:32:55.328Z,3.40
2023-02-09T08:35:26.305Z,3.80
2023-02-09T08:38:01.864Z,4.20
2023-02-09T08:40:32.960Z,4.20
2023-02-09T08:43:03.847Z,4.20
2023-02-09T08:45:40.310Z,4.60
2023-02-09T08:48:11.451Z,4.30
2023-02-09T08:50:42.335Z,4.80
2023-02-09T08:53:13.234Z,4.80
2023-02-09T08:55:44.492Z,5.00
2023-02-09T08:58:15.651Z,4.20
2023-02-09T09:00:46.857Z,4.80
2023-02-09T09:03:17.845Z,5.50
2023-02-09T09:05:49.242Z,4.80
2023-02-09T09:08:20.250Z,4.90
2023-02-09T09:10:51.101Z,5.00
2023-02-09T09:13:24.261Z,4.60
2023-02-09T09:15:55.950Z,5.20
2023-02-09T09:18:27.129Z,5.00
2023-02-09T09:20:58.245Z,4.90
2023-02-09T09:23:29.134Z,5.40
2023-02-09T09:26:04.056Z,4.90
2023-02-09T09:28:35.126Z,5.70
2023-02-09T09:31:12.902Z,4.80
2023-02-09T09:33:45.207Z,4.80
2023-02-09T09:36:16.095Z,5.50
2023-02-09T09:38:47.865Z,6.00
2023-02-09T09:41:47.247Z,6.20
2023-02-09T09:44:33.719Z,6.00
2023-02-09T09:47:12.292Z,5.70
2023-02-09T09:49:43.551Z,6.30
2023-02-09T09:52:31.171Z,6.10
2023-02-09T09:55:06.364Z,6.20
2023-02-09T09:57:45.042Z,6.10
2023-02-09T10:00:26.496Z,6.20
2023-02-09T10:02:57.454Z,6.20
2023-02-09T10:05:35.766Z,6.30
2023-02-09T10:08:42.413Z,6.40
2023-02-09T10:11:22.438Z,5.60
2023-02-09T10:13:56.412Z,6.40
2023-02-09T10:16:34.417Z,6.40
2023-02-09T10:19:21.521Z,6.50
2023-02-09T10:21:54.218Z,7.10
2023-02-09T10:24:31.877Z,7.10
2023-02-09T10:27:27.314Z,7.20
2023-02-09T10:30:20.180Z,7.40
2023-02-09T10:32:51.124Z,7.40
2023-02-09T10:35:46.531Z,7.90
2023-02-09T10:38:21.163Z,7.50
2023-02-09T10:40:52.150Z,7.60
2023-02-09T10:43:29.055Z,7.90
2023-02-09T10:46:12.070Z,7.90
2023-02-09T10:48:45.923Z,7.70
2023-02-09T10:51:33.537Z,8.10
2023-02-09T10:54:09.815Z,8.50
2023-02-09T10:56:48.010Z,9.10
2023-02-09T10:59:22.332Z,9.60
2023-02-09T11:01:59.934Z,10.70
2023-02-09T11:04:40.201Z,9.80
2023-02-09T11:07:17.532Z,10.60
2023-02-09T11:09:51.628Z,10.90
2023-02-09T11:12:24.905Z,9.60
2023-02-09T11:14:55.849Z,9.20
2023-02-09T11:17:37.420Z,9.90
2023-02-09T11:20:44.483Z,9.80
2023-02-09T11:23:36.547Z,9.70
2023-02-09T11:26:32.442Z,9.90
2023-02-09T11:29:15.088Z,10.10
2023-02-09T11:32:13.385Z,10.70
2023-02-09T11:35:00.362Z,10.00
2023-02-09T11:38:03.539Z,10.10
2023-02-09T11:40:42.077Z,10.80
2023-02-09T11:43:21.625Z,11.40
2023-02-09T11:45:59.903Z,10.90
2023-02-09T11:48:44.714Z,11.00
2023-02-09T11:51:20.189Z,10.90
2023-02-09T11:54:17.435Z,10.70
2023-02-09T11:57:01.962Z,11.30
2023-02-09T11:59:56.410Z,11.40
2023-02-09T12:02:58.643Z,10.70
2023-02-09T12:05:29.767Z,11.00
2023-02-09T12:08:58.166Z,10.90
2023-02-09T12:11:41.952Z,10.80
2023-02-09T12:14:28.175Z,11.20
2023-02-09T12:17:35.350Z,11.80
2023-02-09T12:20:32.184Z,11.80
2023-02-09T12:23:08.063Z,10.90
2023-02-09T12:25:57.546Z,11.90
2023-02-09T12:28:31.086Z,12.10
2023-02-09T12:31:06.038Z,11.90
2023-02-09T12:33:59.999Z,12.00
2023-02-09T12:36:34.021Z,11.70
2023-02-09T12:39:37.061Z,12.20
2023-02-09T12:42:07.931Z,12.40
2023-02-09T12:44:54.266Z,12.30
2023-02-09T12:47:53.829Z,11.50
2023-02-09T12:50:42.344Z,10.90
2023-02-09T12:53:22.275Z,11.60
2023-02-09T12:56:09.327Z,11.60
2023-02-09T12:58:46.251Z,12.20
2023-02-09T13:01:18.044Z,12.10
2023-02-09T13:04:00.597Z,12.40
2023-02-09T13:06:51.939Z,12.50
2023-02-09T13:09:34.788Z,12.40
2023-02-09T13:12:33.247Z,11.70
2023-02-09T13:15:15.056Z,12.10
2023-02-09T13:18:08.517Z,12.20
2023-02-09T13:20:51.169Z,12.20
2023-02-09T13:23:39.137Z,12.60
2023-02-09T13:26:32.036Z,12.90
2023-02-09T13:29:20.942Z,13.50
2023-02-09T13:32:00.819Z,13.10
2023-02-09T13:34:42.711Z,14.00
2023-02-09T13:37:44.317Z,14.00
2023-02-09T13:40:30.197Z,13.90
2023-02-09T13:43:10.094Z,13.50
2023-02-09T13:45:52.708Z,14.10
2023-02-09T13:48:36.796Z,14.10
2023-02-09T13:51:17.495Z,14.00
2023-02-09T13:54:02.608Z,13.10
2023-02-09T13:56:35.181Z,13.60
2023-02-09T13:59:06.207Z,14.00
2023-02-09T14:01:37.483Z,13.50
2023-02-09T14:04:25.457Z,13.00
2023-02-09T14:07:08.185Z,13.20
2023-02-09T14:10:05.199Z,13.90
2023-02-09T14:13:22.180Z,13.50
2023-02-09T14:16:07.655Z,13.90
2023-02-09T14:18:56.861Z,13.90
2023-02-09T14:21:34.194Z,13.70
2023-02-09T14:24:27.674Z,14.00
2023-02-09T14:27:18.833Z,13.00
2023-02-09T14:29:50.964Z,13.20
2023-02-09T14:32:45.385Z,12.70
2023-02-09T14:35:40.862Z,13.00
2023-02-09T14:38:47.617Z,12.70
2023-02-09T14:41:22.201Z,12.50
2023-02-09T14:44:08.239Z,12.40
2023-02-09T14:47:00.502Z,12.20
2023-02-09T14:49:31.375Z,11.90
2023-02-09T14:52:13.598Z,11.70
2023-02-09T14:54:49.182Z,12.10
2023-02-09T14:57:21.334Z,12.20
2023-02-09T14:59:52.340Z,12.10
2023-02-09T15:02:27.087Z,12.00
2023-02-09T15:04:58.056Z,11.60
2023-02-09T15:07:35.376Z,11.50
2023-02-09T15:10:34.263Z,11.90
2023-02-09T15:13:05.454Z,11.30
2023-02-09T15:15:38.614Z,11.80
2023-02-09T15:18:23.120Z,12.10
2023-02-09T15:20:54.172Z,12.10
2023-02-09T15:23:25.135Z,11.90
2023-02-09T15:25:56.013Z,11.60
2023-02-09T15:28:32.280Z,11.70
2023-02-09T15:31:03.375Z,11.50
2023-02-09T15:33:34.310Z,11.50
2023-02-09T15:36:06.527Z,11.20
2023-02-09T15:38:37.442Z,11.00
2023-02-09T15:41:29.075Z,10.70
2023-02-09T15:44:33.571Z,10.80
2023-02-09T15:47:23.842Z,11.20
2023-02-09T15:49:54.801Z,11.20
2023-02-09T15:52:26.578Z,11.00
2023-02-09T15:54:57.556Z,11.10
2023-02-09T15:57:28.526Z,11.00
2023-02-09T15:59:59.420Z,11.10
2023-02-09T16:02:30.312Z,11.10
2023-02-09T16:05:01.230Z,11.10
2023-02-09T16:07:32.128Z,11.00
2023-02-09T16:10:04.508Z,10.80
2023-02-09T16:12:35.431Z,10.70
2023-02-09T16:15:25.448Z,10.80
2023-02-09T16:17:56.324Z,12.60
2023-02-09T16:20:28.274Z,13.60
2023-02-09T16:23:18.667Z,14.10
2023-02-09T16:25:53.614Z,12.80
2023-02-09T16:28:24.546Z,11.90
2023-02-09T16:30:58.097Z,11.50
2023-02-09T16:33:29.032Z,11.20
2023-02-09T16:36:02.339Z,10.70
2023-02-09T16:38:33.280Z,10.40
2023-02-09T16:41:04.321Z,10.60
2023-02-09T16:43:35.657Z,10.20
2023-02-09T16:46:06.933Z,10.00
2023-02-09T16:48:41.760Z,9.70
2023-02-09T16:51:14.823Z,9.70
2023-02-09T16:53:53.810Z,9.50
2023-02-09T16:56:25.980Z,9.40
2023-02-09T16:58:56.930Z,9.30
2023-02-09T17:01:27.813Z,9.20
2023-02-09T17:03:58.851Z,9.10
2023-02-09T17:06:30.658Z,8.70
2023-02-09T17:09:01.567Z,8.50
2023-02-09T17:11:32.467Z,8.50
2023-02-09T17:14:03.388Z,8.50
2023-02-09T17:16:39.006Z,8.50
2023-02-09T17:19:16.124Z,8.40
2023-02-09T17:21:47.068Z,8.30
2023-02-09T17:24:18.201Z,8.20
2023-02-09T17:26:49.107Z,7.90
2023-02-09T17:29:22.037Z,8.10
2023-02-09T17:31:53.986Z,8.00
2023-02-09T17:34:28.368Z,7.80
2023-02-09T17:36:59.280Z,8.10
2023-02-09T17:39:30.986Z,7.90
2023-02-09T17:42:01.942Z,7.90
2023-02-09T17:44:45.609Z,7.40
2023-02-09T17:47:19.993Z,7.70
2023-02-09T17:49:50.941Z,7.60
2023-02-09T17:52:21.952Z,7.70
2023-02-09T17:54:54.056Z,7.50
2023-02-09T17:57:27.557Z,7.30
2023-02-09T17:59:58.458Z,7.50
2023-02-09T18:02:29.531Z,8.30
2023-02-09T18:05:00.441Z,7.60
2023-02-09T18:07:31.496Z,7.40
2023-02-09T18:10:02.565Z,7.30
2023-02-09T18:12:33.475Z,7.20
2023-02-09T18:15:06.678Z,7.30
2023-02-09T18:17:40.069Z,7.30
2023-02-09T18:20:18.661Z,6.90
2023-02-09T18:22:50.322Z,7.10
2023-02-09T18:25:43.638Z,9.10
2023-02-09T18:28:16.305Z,11.40
2023-02-09T18:30:47.390Z,9.40
2023-02-09T18:33:18.915Z,8.30
2023-02-09T18:35:50.256Z,7.80
2023-02-09T18:38:21.140Z,7.40
2023-02-09T18:40:53.292Z,7.00
2023-02-09T18:43:24.278Z,7.20
2023-02-09T18:45:55.241Z,6.60
2023-02-09T18:48:26.160Z,6.80
2023-02-09T18:50:57.006Z,6.80
2023-02-09T18:53:27.960Z,6.70
2023-02-09T18:55:58.898Z,6.60
2023-02-09T18:58:29.948Z,6.60
2023-02-09T19:01:00.884Z,6.50
2023-02-09T19:03:31.771Z,6.60
2023-02-09T19:06:02.737Z,6.60
2023-02-09T19:08:33.658Z,6.50
2023-02-09T19:11:05.562Z,6.30
2023-02-09T19:13:36.780Z,6.50
2023-02-09T19:16:12.452Z,6.60
2023-02-09T19:18:43.435Z,6.30
2023-02-09T19:21:14.284Z,6.20
2023-02-09T19:23:45.171Z,6.40
2023-02-09T19:26:16.073Z,6.40
2023-02-09T19:28:47.080Z,6.30
2023-02-09T19:31:18.498Z,6.60
2023-02-09T19:33:49.477Z,6.30
2023-02-09T19:36:22.311Z,6.00
2023-02-09T19:38:53.567Z,6.30
2023-02-09T19:41:25.662Z,6.50
2023-02-09T19:43:58.028Z,6.30
2023-02-09T19:46:29.144Z,5.90
2023-02-09T19:49:01.048Z,6.30
2023-02-09T19:51:32.262Z,6.10
2023-02-09T19:54:04.346Z,6.10
2023-02-09T19:56:35.271Z,6.30
2023-02-09T19:59:06.383Z,6.40
2023-02-09T20:01:38.608Z,6.50
2023-02-09T20:04:10.011Z,6.60
2023-02-09T20:06:41.361Z,6.90
2023-02-09T20:09:12.475Z,7.00
2023-02-09T20:11:43.538Z,6.90
2023-02-09T20:14:14.608Z,6.80
2023-02-09T20:16:45.644Z,6.90
2023-02-09T20:19:16.670Z,6.90
2023-02-09T20:21:47.755Z,6.90
2023-02-09T20:24:19.004Z,6.70
2023-02-09T20:26:50.017Z,6.90
2023-02-09T20:29:22.627Z,6.90
2023-02-09T20:31:53.614Z,6.90
2023-02-09T20:34:24.575Z,6.80
2023-02-09T20:36:57.461Z,6.40
2023-02-09T20:39:28.464Z,6.40
2023-02-09T20:42:19.714Z,6.60
2023-02-09T20:45:08.975Z,6.50
2023-02-09T20:47:39.856Z,6.30
2023-02-09T20:50:10.844Z,6.20
2023-02-09T20:52:41.727Z,6.20
2023-02-09T20:55:13.559Z,6.20
2023-02-09T20:57:44.465Z,6.30
2023-02-09T21:00:16.096Z,6.70
2023-02-09T21:02:47.155Z,6.80
2023-02-09T21:05:18.440Z,6.70
2023-02-09T21:07:50.848Z,6.60
2023-02-09T21:10:22.425Z,6.50
2023-02-09T21:12:53.339Z,6.40
2023-02-09T21:15:24.269Z,6.10
2023-02-09T21:17:55.147Z,6.20
2023-02-09T21:20:26.059Z,6.10
2023-02-09T21:22:57.368Z,6.10
2023-02-09T21:25:28.309Z,6.00
2023-02-09T21:28:01.863Z,6.40
2023-02-09T21:30:32.910Z,6.30
2023-02-09T21:33:03.899Z,6.00
2023-02-09T21:35:39.915Z,5.50
2023-02-09T21:38:10.791Z,5.60
2023-02-09T21:40:41.899Z,5.50
2023-02-09T21:43:12.888Z,5.60
2023-02-09T21:45:43.948Z,5.20
2023-02-09T21:48:14.825Z,5.10
2023-02-09T21:50:45.695Z,5.50
2023-02-09T21:53:16.670Z,5.80
2023-02-09T21:55:47.569Z,5.60
2023-02-09T21:58:18.490Z,5.40
2023-02-09T22:00:58.218Z,5.50
2023-02-09T22:03:29.124Z,5.40
2023-02-09T22:09:02.832Z,5.40
2023-02-09T22:11:34.105Z,5.20
2023-02-09T22:14:05.213Z,5.40
2023-02-09T22:16:36.296Z,5.50
2023-02-09T22:19:07.795Z,5.40
2023-02-09T22:21:38.802Z,5.30
2023-02-09T22:24:16.629Z,5.50
2023-02-09T22:26:47.613Z,5.20
2023-02-09T22:29:18.823Z,5.10
2023-02-09T22:31:50.171Z,5.10
2023-02-09T22:34:21.170Z,5.10
2023-02-09T22:36:54.175Z,5.00
2023-02-09T22:39:25.172Z,5.20
2023-02-09T22:41:58.859Z,5.10
2023-02-09T22:44:30.490Z,5.00
2023-02-09T22:47:01.353Z,4.70
2023-02-09T22:49:32.327Z,5.10
2023-02-09T22:52:03.246Z,4.80
2023-02-09T22:54:34.299Z,4.60
2023-02-09T22:57:05.350Z,5.00
2023-02-09T22:59:36.565Z,5.00
2023-02-09T23:02:07.531Z,5.00
2023-02-09T23:04:38.588Z,4.70
2023-02-09T23:07:09.888Z,4.70
2023-02-09T23:09:40.910Z,4.80
2023-02-09T23:12:11.787Z,4.80
2023-02-09T23:14:42.772Z,4.70
2023-02-09T23:17:13.963Z,4.60
2023-02-09T23:19:45.042Z,4.90
2023-02-09T23:22:15.972Z,4.90
2023-02-09T23:24:46.985Z,4.40
2023-02-09T23:27:18.389Z,4.60
2023-02-09T23:29:49.273Z,4.50
2023-02-09T23:32:20.180Z,4.60
2023-02-09T23:34:51.148Z,4.50
2023-02-09T23:37:36.675Z,4.50
2023-02-09T23:40:09.762Z,4.50
2023-02-09T23:42:40.686Z,4.40
2023-02-09T23:45:11.610Z,4.10
2023-02-09T23:47:42.526Z,4.60
2023-02-09T23:50:13.542Z,4.60
2023-02-09T23:52:44.448Z,4.70
2023-02-09T23:55:15.414Z,4.50
2023-02-09T23:57:46.303Z,4.50
